sensor_id;sensor_type;location;lat;lon;timestamp;P1;durP1;ratioP1;P2;durP2;ratioP2
54875;SDS011;40764;48.472;8.166;2023-05-17T00:02:46;8.68;;;2.28;;
54875;SDS011;40764;48.472;8.166;2023-05-17T00:08:46;2.83;;;1.73;;
54875;SDS011;40764;48.472;8.166;2023-05-17T00:14:46;7.47;;;2.33;;
54875;SDS011;40764;48.472;8.166;2023-05-17T00:20:47;2.73;;;1.60;;
54875;SDS011;40764;48.472;8.166;2023-05-17T00:26:47;5.90;;;1.70;;
54875;SDS011;40764;48.472;8.166;2023-05-17T00:32:47;5.18;;;1.90;;
54875;SDS011;40764;48.472;8.166;2023-05-17T00:38:48;5.70;;;2.08;;
54875;SDS011;40764;48.472;8.166;2023-05-17T00:44:48;4.70;;;2.50;;
54875;SDS011;40764;48.472;8.166;2023-05-17T00:50:48;6.20;;;2.50;;
54875;SDS011;40764;48.472;8.166;2023-05-17T00:56:49;10.37;;;2.73;;
54875;SDS011;40764;48.472;8.166;2023-05-17T01:02:50;8.70;;;3.40;;
54875;SDS011;40764;48.472;8.166;2023-05-17T01:08:50;12.57;;;2.60;;
54875;SDS011;40764;48.472;8.166;2023-05-17T01:15:01;5.13;;;2.93;;
54875;SDS011;40764;48.472;8.166;2023-05-17T01:27:54;8.23;;;2.30;;
54875;SDS011;40764;48.472;8.166;2023-05-17T01:33:59;7.78;;;2.45;;
54875;SDS011;40764;48.472;8.166;2023-05-17T01:40:00;10.77;;;2.60;;
54875;SDS011;40764;48.472;8.166;2023-05-17T01:52:18;6.03;;;2.00;;
54875;SDS011;40764;48.472;8.166;2023-05-17T01:58:24;4.90;;;2.33;;
54875;SDS011;40764;48.472;8.166;2023-05-17T02:04:25;5.40;;;2.92;;
54875;SDS011;40764;48.472;8.166;2023-05-17T02:10:25;10.50;;;2.22;;
54875;SDS011;40764;48.472;8.166;2023-05-17T02:16:26;7.23;;;2.50;;
54875;SDS011;40764;48.472;8.166;2023-05-17T02:22:26;4.18;;;2.17;;
54875;SDS011;40764;48.472;8.166;2023-05-17T02:28:26;8.18;;;2.20;;
54875;SDS011;40764;48.472;8.166;2023-05-17T02:34:27;8.77;;;2.33;;
54875;SDS011;40764;48.472;8.166;2023-05-17T02:40:27;4.30;;;1.70;;
54875;SDS011;40764;48.472;8.166;2023-05-17T02:46:27;10.57;;;2.33;;
54875;SDS011;40764;48.472;8.166;2023-05-17T02:52:28;21.35;;;2.45;;
54875;SDS011;40764;48.472;8.166;2023-05-17T02:58:28;6.32;;;1.90;;
54875;SDS011;40764;48.472;8.166;2023-05-17T03:04:28;6.45;;;2.05;;
54875;SDS011;40764;48.472;8.166;2023-05-17T03:10:29;5.00;;;2.17;;
54875;SDS011;40764;48.472;8.166;2023-05-17T03:16:29;5.20;;;2.03;;
54875;SDS011;40764;48.472;8.166;2023-05-17T03:22:29;7.03;;;1.67;;
54875;SDS011;40764;48.472;8.166;2023-05-17T03:28:30;5.57;;;1.92;;
54875;SDS011;40764;48.472;8.166;2023-05-17T03:34:30;5.60;;;2.20;;
54875;SDS011;40764;48.472;8.166;2023-05-17T03:40:30;4.63;;;2.05;;
54875;SDS011;40764;48.472;8.166;2023-05-17T03:46:31;7.85;;;1.92;;
54875;SDS011;40764;48.472;8.166;2023-05-17T03:52:31;10.68;;;1.90;;
54875;SDS011;40764;48.472;8.166;2023-05-17T03:58:31;4.27;;;1.60;;
54875;SDS011;40764;48.472;8.166;2023-05-17T04:04:32;4.35;;;2.10;;
54875;SDS011;40764;48.472;8.166;2023-05-17T04:10:32;13.77;;;2.80;;
54875;SDS011;40764;48.472;8.166;2023-05-17T04:16:32;2.80;;;2.10;;
54875;SDS011;40764;48.472;8.166;2023-05-17T04:22:33;5.20;;;2.20;;
54875;SDS011;40764;48.472;8.166;2023-05-17T04:28:33;5.23;;;2.00;;
54875;SDS011;40764;48.472;8.166;2023-05-17T04:34:34;3.87;;;2.13;;
54875;SDS011;40764;48.472;8.166;2023-05-17T04:40:35;6.37;;;2.93;;
54875;SDS011;40764;48.472;8.166;2023-05-17T04:46:36;9.65;;;3.17;;
54875;SDS011;40764;48.472;8.166;2023-05-17T04:52:36;6.23;;;3.57;;
54875;SDS011;40764;48.472;8.166;2023-05-17T04:58:36;11.63;;;3.75;;
54875;SDS011;40764;48.472;8.166;2023-05-17T05:04:37;8.75;;;3.95;;
54875;SDS011;40764;48.472;8.166;2023-05-17T05:10:37;10.60;;;3.03;;
54875;SDS011;40764;48.472;8.166;2023-05-17T05:16:37;9.95;;;2.75;;
54875;SDS011;40764;48.472;8.166;2023-05-17T05:22:38;15.43;;;3.60;;
54875;SDS011;40764;48.472;8.166;2023-05-17T05:28:38;16.42;;;5.90;;
54875;SDS011;40764;48.472;8.166;2023-05-17T05:34:38;17.00;;;5.65;;
54875;SDS011;40764;48.472;8.166;2023-05-17T05:40:39;25.80;;;6.88;;
54875;SDS011;40764;48.472;8.166;2023-05-17T05:46:39;14.40;;;5.47;;
54875;SDS011;40764;48.472;8.166;2023-05-17T05:52:41;25.03;;;6.87;;
54875;SDS011;40764;48.472;8.166;2023-05-17T05:58:41;14.63;;;7.75;;
54875;SDS011;40764;48.472;8.166;2023-05-17T06:04:41;12.65;;;5.20;;
54875;SDS011;40764;48.472;8.166;2023-05-17T06:10:42;11.27;;;3.20;;
54875;SDS011;40764;48.472;8.166;2023-05-17T06:16:42;8.07;;;3.13;;
54875;SDS011;40764;48.472;8.166;2023-05-17T06:22:43;12.95;;;2.95;;
54875;SDS011;40764;48.472;8.166;2023-05-17T06:28:43;8.90;;;3.60;;
54875;SDS011;40764;48.472;8.166;2023-05-17T06:34:44;8.40;;;2.47;;
54875;SDS011;40764;48.472;8.166;2023-05-17T06:40:44;7.63;;;2.80;;
54875;SDS011;40764;48.472;8.166;2023-05-17T06:46:45;16.77;;;3.05;;
54875;SDS011;40764;48.472;8.166;2023-05-17T06:52:45;7.60;;;2.45;;
54875;SDS011;40764;48.472;8.166;2023-05-17T06:58:46;9.07;;;2.42;;
54875;SDS011;40764;48.472;8.166;2023-05-17T07:04:47;11.73;;;2.80;;
54875;SDS011;40764;48.472;8.166;2023-05-17T07:10:49;5.68;;;2.03;;
54875;SDS011;40764;48.472;8.166;2023-05-17T07:16:51;4.03;;;2.22;;
54875;SDS011;40764;48.472;8.166;2023-05-17T07:22:51;6.57;;;2.13;;
54875;SDS011;40764;48.472;8.166;2023-05-17T07:28:51;4.82;;;2.17;;
54875;SDS011;40764;48.472;8.166;2023-05-17T07:34:51;12.98;;;2.83;;
54875;SDS011;40764;48.472;8.166;2023-05-17T07:40:52;12.70;;;2.05;;
54875;SDS011;40764;48.472;8.166;2023-05-17T07:46:52;7.00;;;2.20;;
54875;SDS011;40764;48.472;8.166;2023-05-17T07:52:52;6.65;;;2.70;;
54875;SDS011;40764;48.472;8.166;2023-05-17T07:58:56;11.07;;;2.03;;
54875;SDS011;40764;48.472;8.166;2023-05-17T08:04:57;14.20;;;2.20;;
54875;SDS011;40764;48.472;8.166;2023-05-17T08:10:57;8.95;;;2.88;;
54875;SDS011;40764;48.472;8.166;2023-05-17T08:16:57;3.93;;;1.70;;
54875;SDS011;40764;48.472;8.166;2023-05-17T08:22:58;7.83;;;2.03;;
54875;SDS011;40764;48.472;8.166;2023-05-17T08:28:59;4.97;;;2.17;;
54875;SDS011;40764;48.472;8.166;2023-05-17T08:35:01;3.15;;;1.60;;
54875;SDS011;40764;48.472;8.166;2023-05-17T08:41:02;5.05;;;1.90;;
54875;SDS011;40764;48.472;8.166;2023-05-17T08:47:03;9.23;;;2.50;;
54875;SDS011;40764;48.472;8.166;2023-05-17T08:53:05;6.10;;;2.15;;
54875;SDS011;40764;48.472;8.166;2023-05-17T08:59:07;5.23;;;2.17;;
54875;SDS011;40764;48.472;8.166;2023-05-17T09:05:09;7.85;;;1.88;;
54875;SDS011;40764;48.472;8.166;2023-05-17T09:11:09;5.63;;;1.67;;
54875;SDS011;40764;48.472;8.166;2023-05-17T09:17:20;4.70;;;1.63;;
54875;SDS011;40764;48.472;8.166;2023-05-17T09:23:20;6.57;;;2.03;;
54875;SDS011;40764;48.472;8.166;2023-05-17T09:29:21;5.07;;;2.17;;
54875;SDS011;40764;48.472;8.166;2023-05-17T09:35:28;6.50;;;2.22;;
54875;SDS011;40764;48.472;8.166;2023-05-17T09:41:29;5.68;;;2.53;;
54875;SDS011;40764;48.472;8.166;2023-05-17T09:47:39;7.68;;;2.00;;
54875;SDS011;40764;48.472;8.166;2023-05-17T09:53:39;5.82;;;2.05;;
54875;SDS011;40764;48.472;8.166;2023-05-17T09:59:41;5.25;;;1.92;;
54875;SDS011;40764;48.472;8.166;2023-05-17T10:05:42;6.70;;;2.30;;
54875;SDS011;40764;48.472;8.166;2023-05-17T10:11:44;3.73;;;1.77;;
54875;SDS011;40764;48.472;8.166;2023-05-17T10:17:46;6.78;;;1.88;;
54875;SDS011;40764;48.472;8.166;2023-05-17T10:23:47;6.27;;;2.17;;
54875;SDS011;40764;48.472;8.166;2023-05-17T10:29:48;9.43;;;2.67;;
54875;SDS011;40764;48.472;8.166;2023-05-17T10:35:49;6.47;;;2.40;;
54875;SDS011;40764;48.472;8.166;2023-05-17T10:41:51;7.27;;;2.17;;
54875;SDS011;40764;48.472;8.166;2023-05-17T10:47:53;5.40;;;2.45;;
54875;SDS011;40764;48.472;8.166;2023-05-17T11:00:07;8.35;;;2.33;;
54875;SDS011;40764;48.472;8.166;2023-05-17T11:06:11;7.28;;;2.60;;
54875;SDS011;40764;48.472;8.166;2023-05-17T11:12:12;6.28;;;2.45;;
54875;SDS011;40764;48.472;8.166;2023-05-17T11:24:18;4.25;;;2.53;;
54875;SDS011;40764;48.472;8.166;2023-05-17T11:30:27;5.35;;;3.00;;
54875;SDS011;40764;48.472;8.166;2023-05-17T11:36:29;5.30;;;2.17;;
54875;SDS011;40764;48.472;8.166;2023-05-17T11:42:30;8.43;;;3.03;;
54875;SDS011;40764;48.472;8.166;2023-05-17T11:48:30;10.37;;;2.70;;
54875;SDS011;40764;48.472;8.166;2023-05-17T11:54:31;6.40;;;2.60;;
54875;SDS011;40764;48.472;8.166;2023-05-17T12:00:33;6.23;;;2.87;;
54875;SDS011;40764;48.472;8.166;2023-05-17T12:06:34;4.85;;;2.42;;
54875;SDS011;40764;48.472;8.166;2023-05-17T12:12:35;7.77;;;2.87;;
54875;SDS011;40764;48.472;8.166;2023-05-17T12:18:36;5.47;;;2.90;;
54875;SDS011;40764;48.472;8.166;2023-05-17T12:24:41;8.30;;;2.88;;
54875;SDS011;40764;48.472;8.166;2023-05-17T12:36:42;12.97;;;3.30;;
54875;SDS011;40764;48.472;8.166;2023-05-17T12:42:43;5.27;;;3.23;;
54875;SDS011;40764;48.472;8.166;2023-05-17T12:48:44;8.90;;;3.50;;
54875;SDS011;40764;48.472;8.166;2023-05-17T12:54:45;9.10;;;3.42;;
54875;SDS011;40764;48.472;8.166;2023-05-17T13:00:55;8.57;;;3.00;;
54875;SDS011;40764;48.472;8.166;2023-05-17T13:06:57;6.47;;;3.05;;
54875;SDS011;40764;48.472;8.166;2023-05-17T13:12:59;8.25;;;3.45;;
54875;SDS011;40764;48.472;8.166;2023-05-17T13:18:59;10.88;;;3.33;;
54875;SDS011;40764;48.472;8.166;2023-05-17T13:25:01;8.30;;;3.22;;
54875;SDS011;40764;48.472;8.166;2023-05-17T13:31:02;7.78;;;3.13;;
54875;SDS011;40764;48.472;8.166;2023-05-17T13:37:02;15.18;;;4.18;;
54875;SDS011;40764;48.472;8.166;2023-05-17T13:43:04;18.30;;;5.53;;
54875;SDS011;40764;48.472;8.166;2023-05-17T13:49:05;7.88;;;3.85;;
54875;SDS011;40764;48.472;8.166;2023-05-17T13:55:06;14.50;;;3.28;;
54875;SDS011;40764;48.472;8.166;2023-05-17T14:01:07;10.57;;;3.70;;
54875;SDS011;40764;48.472;8.166;2023-05-17T14:07:07;5.43;;;2.80;;
54875;SDS011;40764;48.472;8.166;2023-05-17T14:13:08;9.90;;;2.77;;
54875;SDS011;40764;48.472;8.166;2023-05-17T14:19:08;4.17;;;2.40;;
54875;SDS011;40764;48.472;8.166;2023-05-17T14:25:09;9.70;;;4.97;;
54875;SDS011;40764;48.472;8.166;2023-05-17T14:31:10;12.50;;;2.88;;
54875;SDS011;40764;48.472;8.166;2023-05-17T14:37:10;11.75;;;2.60;;
54875;SDS011;40764;48.472;8.166;2023-05-17T14:43:14;8.95;;;2.90;;
54875;SDS011;40764;48.472;8.166;2023-05-17T14:49:15;8.45;;;3.05;;
54875;SDS011;40764;48.472;8.166;2023-05-17T14:55:16;7.13;;;2.67;;
54875;SDS011;40764;48.472;8.166;2023-05-17T15:01:16;11.33;;;2.90;;
54875;SDS011;40764;48.472;8.166;2023-05-17T15:07:17;9.63;;;2.93;;
54875;SDS011;40764;48.472;8.166;2023-05-17T15:13:17;8.05;;;3.00;;
54875;SDS011;40764;48.472;8.166;2023-05-17T15:19:17;5.78;;;2.78;;
54875;SDS011;40764;48.472;8.166;2023-05-17T15:25:18;4.40;;;2.20;;
54875;SDS011;40764;48.472;8.166;2023-05-17T15:31:18;7.60;;;3.70;;
54875;SDS011;40764;48.472;8.166;2023-05-17T15:37:19;13.07;;;4.47;;
54875;SDS011;40764;48.472;8.166;2023-05-17T15:43:20;13.10;;;4.33;;
54875;SDS011;40764;48.472;8.166;2023-05-17T15:49:20;28.52;;;6.97;;
54875;SDS011;40764;48.472;8.166;2023-05-17T15:55:21;9.50;;;3.50;;
54875;SDS011;40764;48.472;8.166;2023-05-17T16:01:22;28.17;;;8.20;;
54875;SDS011;40764;48.472;8.166;2023-05-17T16:07:22;10.35;;;3.50;;
54875;SDS011;40764;48.472;8.166;2023-05-17T16:13:25;5.68;;;3.08;;
54875;SDS011;40764;48.472;8.166;2023-05-17T16:19:25;7.83;;;2.80;;
54875;SDS011;40764;48.472;8.166;2023-05-17T16:25:30;8.10;;;3.70;;
54875;SDS011;40764;48.472;8.166;2023-05-17T16:31:31;9.75;;;4.05;;
54875;SDS011;40764;48.472;8.166;2023-05-17T16:44:04;7.33;;;3.17;;
54875;SDS011;40764;48.472;8.166;2023-05-17T16:50:05;15.23;;;7.88;;
54875;SDS011;40764;48.472;8.166;2023-05-17T16:56:05;5.43;;;2.50;;
54875;SDS011;40764;48.472;8.166;2023-05-17T17:02:06;16.47;;;4.40;;
54875;SDS011;40764;48.472;8.166;2023-05-17T17:08:07;14.70;;;5.20;;
54875;SDS011;40764;48.472;8.166;2023-05-17T17:14:07;6.15;;;2.83;;
54875;SDS011;40764;48.472;8.166;2023-05-17T17:20:08;6.93;;;2.47;;
54875;SDS011;40764;48.472;8.166;2023-05-17T17:26:09;8.43;;;2.97;;
54875;SDS011;40764;48.472;8.166;2023-05-17T17:32:12;25.95;;;8.27;;
54875;SDS011;40764;48.472;8.166;2023-05-17T17:38:12;10.07;;;3.17;;
54875;SDS011;40764;48.472;8.166;2023-05-17T17:44:24;8.43;;;2.60;;
54875;SDS011;40764;48.472;8.166;2023-05-17T17:50:25;7.85;;;2.92;;
54875;SDS011;40764;48.472;8.166;2023-05-17T17:56:27;9.45;;;3.67;;
54875;SDS011;40764;48.472;8.166;2023-05-17T18:02:28;6.10;;;3.05;;
54875;SDS011;40764;48.472;8.166;2023-05-17T18:08:28;6.80;;;2.85;;
54875;SDS011;40764;48.472;8.166;2023-05-17T18:14:29;9.13;;;3.03;;
54875;SDS011;40764;48.472;8.166;2023-05-17T18:20:30;4.45;;;2.67;;
54875;SDS011;40764;48.472;8.166;2023-05-17T18:26:47;7.00;;;3.08;;
54875;SDS011;40764;48.472;8.166;2023-05-17T18:32:51;8.07;;;3.00;;
54875;SDS011;40764;48.472;8.166;2023-05-17T18:38:51;6.80;;;3.37;;
54875;SDS011;40764;48.472;8.166;2023-05-17T18:51:37;12.07;;;5.05;;
54875;SDS011;40764;48.472;8.166;2023-05-17T18:57:38;17.10;;;3.57;;
54875;SDS011;40764;48.472;8.166;2023-05-17T19:03:41;12.65;;;5.47;;
54875;SDS011;40764;48.472;8.166;2023-05-17T19:09:41;12.48;;;4.82;;
54875;SDS011;40764;48.472;8.166;2023-05-17T19:15:41;13.53;;;3.90;;
54875;SDS011;40764;48.472;8.166;2023-05-17T19:21:42;10.55;;;4.38;;
54875;SDS011;40764;48.472;8.166;2023-05-17T19:27:42;9.05;;;3.92;;
54875;SDS011;40764;48.472;8.166;2023-05-17T19:33:42;17.15;;;4.80;;
54875;SDS011;40764;48.472;8.166;2023-05-17T19:39:43;16.13;;;5.95;;
54875;SDS011;40764;48.472;8.166;2023-05-17T19:45:43;17.67;;;6.70;;
54875;SDS011;40764;48.472;8.166;2023-05-17T19:51:44;13.27;;;4.78;;
54875;SDS011;40764;48.472;8.166;2023-05-17T19:57:47;7.72;;;4.07;;
54875;SDS011;40764;48.472;8.166;2023-05-17T20:03:47;11.25;;;4.13;;
54875;SDS011;40764;48.472;8.166;2023-05-17T20:09:48;12.40;;;5.00;;
54875;SDS011;40764;48.472;8.166;2023-05-17T20:15:48;13.30;;;5.05;;
54875;SDS011;40764;48.472;8.166;2023-05-17T20:21:49;10.85;;;4.82;;
54875;SDS011;40764;48.472;8.166;2023-05-17T20:27:49;12.40;;;5.67;;
54875;SDS011;40764;48.472;8.166;2023-05-17T20:33:49;15.27;;;5.13;;
54875;SDS011;40764;48.472;8.166;2023-05-17T20:39:50;9.97;;;4.93;;
54875;SDS011;40764;48.472;8.166;2023-05-17T20:45:52;17.23;;;4.13;;
54875;SDS011;40764;48.472;8.166;2023-05-17T20:51:58;10.93;;;4.27;;
54875;SDS011;40764;48.472;8.166;2023-05-17T20:58:00;9.38;;;4.57;;
54875;SDS011;40764;48.472;8.166;2023-05-17T21:04:00;11.40;;;4.65;;
54875;SDS011;40764;48.472;8.166;2023-05-17T21:10:00;11.43;;;4.93;;
54875;SDS011;40764;48.472;8.166;2023-05-17T21:16:01;12.97;;;4.17;;
54875;SDS011;40764;48.472;8.166;2023-05-17T21:22:01;16.53;;;4.53;;
54875;SDS011;40764;48.472;8.166;2023-05-17T21:28:02;8.73;;;3.90;;
54875;SDS011;40764;48.472;8.166;2023-05-17T21:34:03;19.02;;;4.55;;
54875;SDS011;40764;48.472;8.166;2023-05-17T21:40:04;11.70;;;3.80;;
54875;SDS011;40764;48.472;8.166;2023-05-17T21:46:06;8.90;;;3.65;;
54875;SDS011;40764;48.472;8.166;2023-05-17T22:13:24;12.13;;;5.82;;
54875;SDS011;40764;48.472;8.166;2023-05-17T22:19:25;40.13;;;11.03;;
54875;SDS011;40764;48.472;8.166;2023-05-17T22:25:25;32.57;;;10.80;;
54875;SDS011;40764;48.472;8.166;2023-05-17T22:31:26;56.47;;;19.13;;
54875;SDS011;40764;48.472;8.166;2023-05-17T22:37:26;35.97;;;11.82;;
54875;SDS011;40764;48.472;8.166;2023-05-17T22:43:26;23.20;;;7.35;;
54875;SDS011;40764;48.472;8.166;2023-05-17T22:49:29;36.10;;;11.82;;
54875;SDS011;40764;48.472;8.166;2023-05-17T22:55:33;18.30;;;6.75;;
54875;SDS011;40764;48.472;8.166;2023-05-17T23:01:33;13.43;;;5.30;;
54875;SDS011;40764;48.472;8.166;2023-05-17T23:07:33;18.35;;;6.25;;
54875;SDS011;40764;48.472;8.166;2023-05-17T23:13:37;12.93;;;4.88;;
54875;SDS011;40764;48.472;8.166;2023-05-17T23:19:37;9.35;;;4.18;;
54875;SDS011;40764;48.472;8.166;2023-05-17T23:25:39;11.30;;;4.38;;
54875;SDS011;40764;48.472;8.166;2023-05-17T23:31:40;23.50;;;4.40;;
54875;SDS011;40764;48.472;8.166;2023-05-17T23:37:40;8.45;;;4.55;;
54875;SDS011;40764;48.472;8.166;2023-05-17T23:43:40;8.90;;;3.75;;
54875;SDS011;40764;48.472;8.166;2023-05-17T23:49:41;9.60;;;3.70;;
54875;SDS011;40764;48.472;8.166;2023-05-17T23:55:41;11.60;;;3.88;;
